sensor_id;sensor_type;location;lat;lon;timestamp;P1;durP1;ratioP1;P2;durP2;ratioP2
1825;SDS011;912;48.130;11.348;2022-08-25T00:00:08;2.40;;;1.10;;
1825;SDS011;912;48.130;11.348;2022-08-25T00:05:25;0.75;;;0.75;;
1825;SDS011;912;48.130;11.348;2022-08-25T00:08:06;0.80;;;0.80;;
1825;SDS011;912;48.130;11.348;2022-08-25T00:10:48;0.60;;;0.57;;
1825;SDS011;912;48.130;11.348;2022-08-25T00:13:29;1.60;;;1.25;;
1825;SDS011;912;48.130;11.348;2022-08-25T00:16:13;13.45;;;0.88;;
1825;SDS011;912;48.130;11.348;2022-08-25T00:18:56;1.12;;;0.93;;
1825;SDS011;912;48.130;11.348;2022-08-25T00:21:37;0.50;;;0.50;;
1825;SDS011;912;48.130;11.348;2022-08-25T00:24:19;0.60;;;0.50;;
1825;SDS011;912;48.130;11.348;2022-08-25T00:27:02;1.00;;;0.90;;
1825;SDS011;912;48.130;11.348;2022-08-25T00:29:44;1.27;;;0.55;;
1825;SDS011;912;48.130;11.348;2022-08-25T00:32:26;0.75;;;0.73;;
1825;SDS011;912;48.130;11.348;2022-08-25T00:35:53;1.20;;;0.90;;
1825;SDS011;912;48.130;11.348;2022-08-25T00:38:38;1.40;;;0.90;;
1825;SDS011;912;48.130;11.348;2022-08-25T00:41:20;1.67;;;1.57;;
1825;SDS011;912;48.130;11.348;2022-08-25T00:44:02;1.30;;;1.20;;
1825;SDS011;912;48.130;11.348;2022-08-25T00:46:48;2.20;;;0.80;;
1825;SDS011;912;48.130;11.348;2022-08-25T00:49:34;0.40;;;0.30;;
1825;SDS011;912;48.130;11.348;2022-08-25T00:52:24;1.65;;;0.80;;
1825;SDS011;912;48.130;11.348;2022-08-25T00:55:10;1.10;;;0.70;;
1825;SDS011;912;48.130;11.348;2022-08-25T00:57:56;0.70;;;0.60;;
1825;SDS011;912;48.130;11.348;2022-08-25T01:00:38;1.37;;;0.70;;
1825;SDS011;912;48.130;11.348;2022-08-25T01:03:19;0.80;;;0.80;;
1825;SDS011;912;48.130;11.348;2022-08-25T01:06:04;1.05;;;0.75;;
1825;SDS011;912;48.130;11.348;2022-08-25T01:08:45;0.70;;;0.70;;
1825;SDS011;912;48.130;11.348;2022-08-25T01:14:04;3.53;;;1.00;;
1825;SDS011;912;48.130;11.348;2022-08-25T01:16:46;1.62;;;1.30;;
1825;SDS011;912;48.130;11.348;2022-08-25T01:19:28;0.70;;;0.60;;
1825;SDS011;912;48.130;11.348;2022-08-25T01:22:09;1.67;;;1.37;;
1825;SDS011;912;48.130;11.348;2022-08-25T01:24:56;0.70;;;0.70;;
1825;SDS011;912;48.130;11.348;2022-08-25T01:27:36;1.70;;;1.30;;
1825;SDS011;912;48.130;11.348;2022-08-25T01:30:22;2.05;;;1.90;;
1825;SDS011;912;48.130;11.348;2022-08-25T01:35:49;0.70;;;0.60;;
1825;SDS011;912;48.130;11.348;2022-08-25T01:38:31;0.50;;;0.50;;
1825;SDS011;912;48.130;11.348;2022-08-25T01:41:15;0.80;;;0.70;;
1825;SDS011;912;48.130;11.348;2022-08-25T01:43:55;2.60;;;1.00;;
1825;SDS011;912;48.130;11.348;2022-08-25T01:46:37;5.90;;;1.48;;
1825;SDS011;912;48.130;11.348;2022-08-25T01:49:19;1.90;;;1.60;;
1825;SDS011;912;48.130;11.348;2022-08-25T01:54:54;0.90;;;0.80;;
1825;SDS011;912;48.130;11.348;2022-08-25T01:57:36;1.02;;;1.02;;
1825;SDS011;912;48.130;11.348;2022-08-25T02:00:19;1.42;;;0.80;;
1825;SDS011;912;48.130;11.348;2022-08-25T02:03:00;2.60;;;1.20;;
1825;SDS011;912;48.130;11.348;2022-08-25T02:05:42;1.67;;;1.17;;
1825;SDS011;912;48.130;11.348;2022-08-25T02:08:24;1.20;;;1.10;;
1825;SDS011;912;48.130;11.348;2022-08-25T02:11:07;30.25;;;1.85;;
1825;SDS011;912;48.130;11.348;2022-08-25T02:13:47;1.80;;;1.10;;
1825;SDS011;912;48.130;11.348;2022-08-25T02:16:34;0.52;;;0.50;;
1825;SDS011;912;48.130;11.348;2022-08-25T02:19:15;0.73;;;0.70;;
1825;SDS011;912;48.130;11.348;2022-08-25T02:22:00;3.10;;;1.45;;
1825;SDS011;912;48.130;11.348;2022-08-25T02:24:41;1.90;;;0.90;;
1825;SDS011;912;48.130;11.348;2022-08-25T02:27:26;1.70;;;0.80;;
1825;SDS011;912;48.130;11.348;2022-08-25T02:30:11;1.23;;;0.93;;
1825;SDS011;912;48.130;11.348;2022-08-25T02:32:52;2.17;;;0.95;;
1825;SDS011;912;48.130;11.348;2022-08-25T02:35:49;1.37;;;1.05;;
1825;SDS011;912;48.130;11.348;2022-08-25T02:38:32;2.40;;;0.70;;
1825;SDS011;912;48.130;11.348;2022-08-25T02:41:15;0.82;;;0.82;;
1825;SDS011;912;48.130;11.348;2022-08-25T02:43:59;1.40;;;0.90;;
1825;SDS011;912;48.130;11.348;2022-08-25T02:46:40;1.30;;;1.20;;
1825;SDS011;912;48.130;11.348;2022-08-25T02:49:23;1.25;;;1.15;;
1825;SDS011;912;48.130;11.348;2022-08-25T02:52:05;1.58;;;1.30;;
1825;SDS011;912;48.130;11.348;2022-08-25T02:54:50;0.70;;;0.70;;
1825;SDS011;912;48.130;11.348;2022-08-25T02:57:32;0.90;;;0.85;;
1825;SDS011;912;48.130;11.348;2022-08-25T03:00:17;1.92;;;1.58;;
1825;SDS011;912;48.130;11.348;2022-08-25T03:05:34;2.50;;;0.50;;
1825;SDS011;912;48.130;11.348;2022-08-25T03:08:17;3.20;;;1.27;;
1825;SDS011;912;48.130;11.348;2022-08-25T03:10:58;1.08;;;1.08;;
1825;SDS011;912;48.130;11.348;2022-08-25T03:13:40;1.77;;;1.15;;
1825;SDS011;912;48.130;11.348;2022-08-25T03:16:22;1.15;;;1.05;;
1825;SDS011;912;48.130;11.348;2022-08-25T03:20:56;0.90;;;0.90;;
1825;SDS011;912;48.130;11.348;2022-08-25T03:23:39;0.65;;;0.65;;
1825;SDS011;912;48.130;11.348;2022-08-25T03:26:20;1.50;;;1.40;;
1825;SDS011;912;48.130;11.348;2022-08-25T03:29:10;1.30;;;1.20;;
1825;SDS011;912;48.130;11.348;2022-08-25T03:31:53;1.40;;;1.30;;
1825;SDS011;912;48.130;11.348;2022-08-25T03:35:49;0.73;;;0.73;;
1825;SDS011;912;48.130;11.348;2022-08-25T03:38:31;1.25;;;0.90;;
1825;SDS011;912;48.130;11.348;2022-08-25T03:41:15;0.57;;;0.57;;
1825;SDS011;912;48.130;11.348;2022-08-25T03:43:58;0.47;;;0.47;;
1825;SDS011;912;48.130;11.348;2022-08-25T03:46:41;1.58;;;1.48;;
1825;SDS011;912;48.130;11.348;2022-08-25T03:49:16;0.80;;;0.70;;
1825;SDS011;912;48.130;11.348;2022-08-25T03:51:57;1.10;;;1.00;;
1825;SDS011;912;48.130;11.348;2022-08-25T03:54:38;2.20;;;0.80;;
1825;SDS011;912;48.130;11.348;2022-08-25T03:57:20;1.20;;;1.10;;
1825;SDS011;912;48.130;11.348;2022-08-25T04:00:03;1.20;;;1.10;;
1825;SDS011;912;48.130;11.348;2022-08-25T04:02:41;0.40;;;0.40;;
1825;SDS011;912;48.130;11.348;2022-08-25T04:05:22;1.70;;;1.27;;
1825;SDS011;912;48.130;11.348;2022-08-25T04:08:04;0.98;;;0.98;;
1825;SDS011;912;48.130;11.348;2022-08-25T04:10:46;1.70;;;1.20;;
1825;SDS011;912;48.130;11.348;2022-08-25T04:13:27;1.48;;;1.30;;
1825;SDS011;912;48.130;11.348;2022-08-25T04:16:10;1.27;;;1.23;;
1825;SDS011;912;48.130;11.348;2022-08-25T04:18:52;2.00;;;1.27;;
1825;SDS011;912;48.130;11.348;2022-08-25T04:21:32;3.30;;;1.10;;
1825;SDS011;912;48.130;11.348;2022-08-25T04:24:14;0.80;;;0.80;;
1825;SDS011;912;48.130;11.348;2022-08-25T04:26:56;1.62;;;1.30;;
1825;SDS011;912;48.130;11.348;2022-08-25T04:29:38;17.00;;;1.85;;
1825;SDS011;912;48.130;11.348;2022-08-25T04:32:19;2.47;;;2.25;;
1825;SDS011;912;48.130;11.348;2022-08-25T04:35:49;1.52;;;1.02;;
1825;SDS011;912;48.130;11.348;2022-08-25T04:38:32;3.05;;;1.23;;
1825;SDS011;912;48.130;11.348;2022-08-25T04:41:14;1.80;;;1.42;;
1825;SDS011;912;48.130;11.348;2022-08-25T04:43:55;3.33;;;1.30;;
1825;SDS011;912;48.130;11.348;2022-08-25T04:46:37;6.50;;;2.50;;
1825;SDS011;912;48.130;11.348;2022-08-25T04:49:21;8.98;;;4.65;;
1825;SDS011;912;48.130;11.348;2022-08-25T04:52:03;5.95;;;3.58;;
1825;SDS011;912;48.130;11.348;2022-08-25T04:54:45;11.63;;;6.68;;
1825;SDS011;912;48.130;11.348;2022-08-25T04:57:30;9.35;;;5.10;;
1825;SDS011;912;48.130;11.348;2022-08-25T05:00:12;4.82;;;3.58;;
1825;SDS011;912;48.130;11.348;2022-08-25T05:02:55;3.25;;;2.85;;
1825;SDS011;912;48.130;11.348;2022-08-25T05:05:37;2.95;;;2.05;;
1825;SDS011;912;48.130;11.348;2022-08-25T05:08:18;1.98;;;1.77;;
1825;SDS011;912;48.130;11.348;2022-08-25T05:11:04;2.30;;;1.50;;
1825;SDS011;912;48.130;11.348;2022-08-25T05:13:46;2.80;;;2.47;;
1825;SDS011;912;48.130;11.348;2022-08-25T05:16:30;1.80;;;1.70;;
1825;SDS011;912;48.130;11.348;2022-08-25T05:19:13;1.52;;;1.35;;
1825;SDS011;912;48.130;11.348;2022-08-25T05:21:55;1.73;;;1.52;;
1825;SDS011;912;48.130;11.348;2022-08-25T05:24:37;2.20;;;1.37;;
1825;SDS011;912;48.130;11.348;2022-08-25T05:27:19;6.53;;;2.00;;
1825;SDS011;912;48.130;11.348;2022-08-25T05:30:04;1.52;;;1.42;;
1825;SDS011;912;48.130;11.348;2022-08-25T05:32:47;1.60;;;1.50;;
1825;SDS011;912;48.130;11.348;2022-08-25T05:35:49;4.12;;;2.17;;
1825;SDS011;912;48.130;11.348;2022-08-25T05:38:31;2.10;;;2.00;;
1825;SDS011;912;48.130;11.348;2022-08-25T05:41:14;3.15;;;1.60;;
1825;SDS011;912;48.130;11.348;2022-08-25T05:43:55;2.80;;;1.50;;
1825;SDS011;912;48.130;11.348;2022-08-25T05:46:37;1.30;;;1.08;;
1825;SDS011;912;48.130;11.348;2022-08-25T05:49:19;1.50;;;0.82;;
1825;SDS011;912;48.130;11.348;2022-08-25T05:52:00;1.83;;;1.40;;
1825;SDS011;912;48.130;11.348;2022-08-25T05:54:42;1.67;;;1.58;;
1825;SDS011;912;48.130;11.348;2022-08-25T05:57:24;1.40;;;1.17;;
1825;SDS011;912;48.130;11.348;2022-08-25T06:00:07;1.80;;;1.50;;
1825;SDS011;912;48.130;11.348;2022-08-25T06:02:50;1.62;;;1.52;;
1825;SDS011;912;48.130;11.348;2022-08-25T06:05:32;6.18;;;2.00;;
1825;SDS011;912;48.130;11.348;2022-08-25T06:10:50;2.10;;;1.60;;
1825;SDS011;912;48.130;11.348;2022-08-25T06:13:32;3.00;;;1.85;;
1825;SDS011;912;48.130;11.348;2022-08-25T06:16:13;2.20;;;2.00;;
1825;SDS011;912;48.130;11.348;2022-08-25T06:18:56;1.45;;;1.35;;
1825;SDS011;912;48.130;11.348;2022-08-25T06:21:37;1.77;;;1.48;;
1825;SDS011;912;48.130;11.348;2022-08-25T06:24:23;2.08;;;1.62;;
1825;SDS011;912;48.130;11.348;2022-08-25T06:27:04;2.05;;;1.67;;
1825;SDS011;912;48.130;11.348;2022-08-25T06:29:45;4.05;;;2.80;;
1825;SDS011;912;48.130;11.348;2022-08-25T06:32:29;4.30;;;3.60;;
1825;SDS011;912;48.130;11.348;2022-08-25T06:35:51;3.33;;;1.77;;
1825;SDS011;912;48.130;11.348;2022-08-25T06:38:31;3.53;;;2.50;;
1825;SDS011;912;48.130;11.348;2022-08-25T06:41:13;4.40;;;2.75;;
1825;SDS011;912;48.130;11.348;2022-08-25T06:43:54;3.85;;;1.85;;
1825;SDS011;912;48.130;11.348;2022-08-25T06:46:36;4.72;;;1.92;;
1825;SDS011;912;48.130;11.348;2022-08-25T06:49:18;5.12;;;2.53;;
1825;SDS011;912;48.130;11.348;2022-08-25T06:52:00;3.65;;;1.83;;
1825;SDS011;912;48.130;11.348;2022-08-25T06:54:45;3.15;;;2.40;;
1825;SDS011;912;48.130;11.348;2022-08-25T06:57:26;3.90;;;2.87;;
1825;SDS011;912;48.130;11.348;2022-08-25T07:00:11;4.12;;;2.65;;
1825;SDS011;912;48.130;11.348;2022-08-25T07:02:53;3.05;;;2.37;;
1825;SDS011;912;48.130;11.348;2022-08-25T07:05:35;2.72;;;1.90;;
1825;SDS011;912;48.130;11.348;2022-08-25T07:10:52;2.53;;;2.03;;
1825;SDS011;912;48.130;11.348;2022-08-25T07:13:34;2.15;;;1.90;;
1825;SDS011;912;48.130;11.348;2022-08-25T07:16:16;4.12;;;2.42;;
1825;SDS011;912;48.130;11.348;2022-08-25T07:18:57;4.53;;;2.50;;
1825;SDS011;912;48.130;11.348;2022-08-25T07:21:39;2.47;;;2.28;;
1825;SDS011;912;48.130;11.348;2022-08-25T07:24:21;4.20;;;1.80;;
1825;SDS011;912;48.130;11.348;2022-08-25T07:27:02;5.57;;;2.42;;
1825;SDS011;912;48.130;11.348;2022-08-25T07:32:21;4.05;;;2.10;;
1825;SDS011;912;48.130;11.348;2022-08-25T07:35:49;3.03;;;2.20;;
1825;SDS011;912;48.130;11.348;2022-08-25T07:38:31;2.72;;;2.10;;
1825;SDS011;912;48.130;11.348;2022-08-25T07:41:13;2.87;;;2.37;;
1825;SDS011;912;48.130;11.348;2022-08-25T07:43:56;3.78;;;2.53;;
1825;SDS011;912;48.130;11.348;2022-08-25T07:46:39;2.37;;;2.15;;
1825;SDS011;912;48.130;11.348;2022-08-25T07:49:22;3.42;;;2.70;;
1825;SDS011;912;48.130;11.348;2022-08-25T07:52:03;3.03;;;2.05;;
1825;SDS011;912;48.130;11.348;2022-08-25T07:54:44;2.30;;;2.10;;
1825;SDS011;912;48.130;11.348;2022-08-25T07:57:27;2.85;;;2.30;;
1825;SDS011;912;48.130;11.348;2022-08-25T08:00:09;2.75;;;1.80;;
1825;SDS011;912;48.130;11.348;2022-08-25T08:02:51;7.80;;;2.30;;
1825;SDS011;912;48.130;11.348;2022-08-25T08:05:39;2.53;;;1.90;;
1825;SDS011;912;48.130;11.348;2022-08-25T08:08:17;1.75;;;1.62;;
1825;SDS011;912;48.130;11.348;2022-08-25T08:10:59;2.92;;;2.50;;
1825;SDS011;912;48.130;11.348;2022-08-25T08:13:45;2.17;;;1.87;;
1825;SDS011;912;48.130;11.348;2022-08-25T08:16:27;3.47;;;2.20;;
1825;SDS011;912;48.130;11.348;2022-08-25T08:19:07;4.10;;;2.20;;
1825;SDS011;912;48.130;11.348;2022-08-25T08:21:49;3.42;;;2.17;;
1825;SDS011;912;48.130;11.348;2022-08-25T08:24:32;2.22;;;2.00;;
1825;SDS011;912;48.130;11.348;2022-08-25T08:27:15;3.80;;;1.95;;
1825;SDS011;912;48.130;11.348;2022-08-25T08:29:57;1.60;;;1.50;;
1825;SDS011;912;48.130;11.348;2022-08-25T08:32:39;2.30;;;2.10;;
1825;SDS011;912;48.130;11.348;2022-08-25T08:35:56;2.25;;;2.05;;
1825;SDS011;912;48.130;11.348;2022-08-25T08:38:39;3.35;;;2.58;;
1825;SDS011;912;48.130;11.348;2022-08-25T08:41:42;4.03;;;2.83;;
1825;SDS011;912;48.130;11.348;2022-08-25T08:44:53;3.95;;;2.55;;
1825;SDS011;912;48.130;11.348;2022-08-25T08:47:47;2.87;;;2.35;;
1825;SDS011;912;48.130;11.348;2022-08-25T08:50:36;5.47;;;3.30;;
1825;SDS011;912;48.130;11.348;2022-08-25T08:53:22;2.33;;;1.85;;
1825;SDS011;912;48.130;11.348;2022-08-25T08:56:18;2.90;;;1.80;;
1825;SDS011;912;48.130;11.348;2022-08-25T08:59:12;1.98;;;1.60;;
1825;SDS011;912;48.130;11.348;2022-08-25T09:01:59;2.90;;;2.50;;
1825;SDS011;912;48.130;11.348;2022-08-25T09:04:47;2.97;;;1.98;;
1825;SDS011;912;48.130;11.348;2022-08-25T09:07:30;2.08;;;1.87;;
1825;SDS011;912;48.130;11.348;2022-08-25T09:10:22;2.30;;;1.80;;
1825;SDS011;912;48.130;11.348;2022-08-25T09:13:08;2.47;;;2.00;;
1825;SDS011;912;48.130;11.348;2022-08-25T09:15:50;2.45;;;2.25;;
1825;SDS011;912;48.130;11.348;2022-08-25T09:18:58;2.37;;;2.17;;
1825;SDS011;912;48.130;11.348;2022-08-25T09:21:58;2.45;;;2.12;;
1825;SDS011;912;48.130;11.348;2022-08-25T09:24:50;2.67;;;2.47;;
1825;SDS011;912;48.130;11.348;2022-08-25T09:30:21;2.70;;;2.50;;
1825;SDS011;912;48.130;11.348;2022-08-25T09:35:50;2.12;;;2.00;;
1825;SDS011;912;48.130;11.348;2022-08-25T09:38:31;2.78;;;2.10;;
1825;SDS011;912;48.130;11.348;2022-08-25T09:41:15;2.35;;;2.10;;
1825;SDS011;912;48.130;11.348;2022-08-25T09:43:55;2.05;;;1.85;;
1825;SDS011;912;48.130;11.348;2022-08-25T09:46:37;2.73;;;2.53;;
1825;SDS011;912;48.130;11.348;2022-08-25T09:49:19;2.40;;;2.20;;
1825;SDS011;912;48.130;11.348;2022-08-25T09:54:48;3.10;;;2.70;;
1825;SDS011;912;48.130;11.348;2022-08-25T09:57:36;2.60;;;2.40;;
1825;SDS011;912;48.130;11.348;2022-08-25T10:00:19;2.70;;;2.28;;
1825;SDS011;912;48.130;11.348;2022-08-25T10:03:09;2.20;;;2.00;;
1825;SDS011;912;48.130;11.348;2022-08-25T10:05:57;2.65;;;2.00;;
1825;SDS011;912;48.130;11.348;2022-08-25T10:14:34;2.90;;;2.60;;
1825;SDS011;912;48.130;11.348;2022-08-25T10:17:16;2.30;;;2.10;;
1825;SDS011;912;48.130;11.348;2022-08-25T10:23:07;3.10;;;2.40;;
1825;SDS011;912;48.130;11.348;2022-08-25T10:25:39;2.58;;;2.37;;
1825;SDS011;912;48.130;11.348;2022-08-25T10:28:25;2.60;;;2.30;;
1825;SDS011;912;48.130;11.348;2022-08-25T10:31:11;4.87;;;2.30;;
1825;SDS011;912;48.130;11.348;2022-08-25T10:35:57;2.62;;;2.40;;
1825;SDS011;912;48.130;11.348;2022-08-25T10:38:41;2.87;;;2.60;;
1825;SDS011;912;48.130;11.348;2022-08-25T10:41:31;3.50;;;3.20;;
1825;SDS011;912;48.130;11.348;2022-08-25T10:44:23;3.10;;;2.17;;
1825;SDS011;912;48.130;11.348;2022-08-25T10:47:23;3.10;;;2.60;;
1825;SDS011;912;48.130;11.348;2022-08-25T10:56:39;3.10;;;2.80;;
1825;SDS011;912;48.130;11.348;2022-08-25T10:59:26;2.60;;;2.40;;
1825;SDS011;912;48.130;11.348;2022-08-25T11:02:12;2.50;;;2.30;;
1825;SDS011;912;48.130;11.348;2022-08-25T11:11:23;2.70;;;2.40;;
1825;SDS011;912;48.130;11.348;2022-08-25T11:14:07;2.37;;;2.17;;
1825;SDS011;912;48.130;11.348;2022-08-25T11:17:06;3.65;;;2.12;;
1825;SDS011;912;48.130;11.348;2022-08-25T11:20:09;3.03;;;2.45;;
1825;SDS011;912;48.130;11.348;2022-08-25T11:22:56;2.85;;;2.55;;
1825;SDS011;912;48.130;11.348;2022-08-25T11:25:41;4.50;;;2.60;;
1825;SDS011;912;48.130;11.348;2022-08-25T11:28:26;3.30;;;2.30;;
1825;SDS011;912;48.130;11.348;2022-08-25T11:31:07;2.87;;;2.58;;
1825;SDS011;912;48.130;11.348;2022-08-25T11:35:52;3.33;;;2.78;;
1825;SDS011;912;48.130;11.348;2022-08-25T11:38:37;4.68;;;2.90;;
1825;SDS011;912;48.130;11.348;2022-08-25T11:41:16;2.65;;;2.45;;
1825;SDS011;912;48.130;11.348;2022-08-25T11:47:07;3.00;;;2.30;;
1825;SDS011;912;48.130;11.348;2022-08-25T11:50:07;3.42;;;2.30;;
1825;SDS011;912;48.130;11.348;2022-08-25T11:52:48;2.37;;;2.17;;
1825;SDS011;912;48.130;11.348;2022-08-25T11:58:41;2.92;;;2.70;;
1825;SDS011;912;48.130;11.348;2022-08-25T12:04:41;2.40;;;2.20;;
1825;SDS011;912;48.130;11.348;2022-08-25T12:07:25;4.13;;;2.27;;
1825;SDS011;912;48.130;11.348;2022-08-25T12:10:09;2.62;;;2.12;;
1825;SDS011;912;48.130;11.348;2022-08-25T12:12:54;2.70;;;2.40;;
1825;SDS011;912;48.130;11.348;2022-08-25T12:15:56;3.10;;;2.25;;
1825;SDS011;912;48.130;11.348;2022-08-25T12:18:38;3.60;;;2.30;;
1825;SDS011;912;48.130;11.348;2022-08-25T12:21:28;2.50;;;2.30;;
1825;SDS011;912;48.130;11.348;2022-08-25T12:24:12;2.80;;;2.60;;
1825;SDS011;912;48.130;11.348;2022-08-25T12:26:54;5.77;;;2.73;;
1825;SDS011;912;48.130;11.348;2022-08-25T12:29:40;3.00;;;1.97;;
1825;SDS011;912;48.130;11.348;2022-08-25T12:32:35;2.73;;;2.53;;
1825;SDS011;912;48.130;11.348;2022-08-25T12:35:54;3.00;;;2.62;;
1825;SDS011;912;48.130;11.348;2022-08-25T12:38:41;2.67;;;2.10;;
1825;SDS011;912;48.130;11.348;2022-08-25T12:41:25;3.05;;;2.85;;
1825;SDS011;912;48.130;11.348;2022-08-25T12:44:14;4.63;;;2.33;;
1825;SDS011;912;48.130;11.348;2022-08-25T12:53:17;3.20;;;2.90;;
1825;SDS011;912;48.130;11.348;2022-08-25T12:56:00;3.87;;;2.80;;
1825;SDS011;912;48.130;11.348;2022-08-25T12:58:49;2.97;;;2.50;;
1825;SDS011;912;48.130;11.348;2022-08-25T13:01:38;3.23;;;2.93;;
1825;SDS011;912;48.130;11.348;2022-08-25T13:04:56;5.90;;;3.37;;
1825;SDS011;912;48.130;11.348;2022-08-25T13:07:57;5.40;;;2.60;;
1825;SDS011;912;48.130;11.348;2022-08-25T13:13:20;3.83;;;3.25;;
1825;SDS011;912;48.130;11.348;2022-08-25T13:16:15;3.70;;;2.90;;
1825;SDS011;912;48.130;11.348;2022-08-25T13:18:57;2.95;;;2.60;;
1825;SDS011;912;48.130;11.348;2022-08-25T13:21:41;3.25;;;2.33;;
1825;SDS011;912;48.130;11.348;2022-08-25T13:24:28;3.87;;;2.80;;
1825;SDS011;912;48.130;11.348;2022-08-25T13:27:19;3.30;;;2.70;;
1825;SDS011;912;48.130;11.348;2022-08-25T13:30:04;3.50;;;2.70;;
1825;SDS011;912;48.130;11.348;2022-08-25T13:32:46;3.17;;;2.67;;
1825;SDS011;912;48.130;11.348;2022-08-25T13:35:51;4.20;;;2.90;;
1825;SDS011;912;48.130;11.348;2022-08-25T13:38:37;4.03;;;3.45;;
1825;SDS011;912;48.130;11.348;2022-08-25T13:41:20;4.47;;;3.30;;
1825;SDS011;912;48.130;11.348;2022-08-25T13:44:01;5.03;;;3.30;;
1825;SDS011;912;48.130;11.348;2022-08-25T13:46:43;4.30;;;3.90;;
1825;SDS011;912;48.130;11.348;2022-08-25T13:49:28;4.93;;;3.50;;
1825;SDS011;912;48.130;11.348;2022-08-25T13:52:19;4.67;;;4.07;;
1825;SDS011;912;48.130;11.348;2022-08-25T13:55:36;4.22;;;3.08;;
1825;SDS011;912;48.130;11.348;2022-08-25T13:58:30;5.75;;;3.20;;
1825;SDS011;912;48.130;11.348;2022-08-25T14:01:14;4.90;;;3.60;;
1825;SDS011;912;48.130;11.348;2022-08-25T14:03:55;5.70;;;2.90;;
1825;SDS011;912;48.130;11.348;2022-08-25T14:06:36;5.87;;;3.43;;
1825;SDS011;912;48.130;11.348;2022-08-25T14:09:21;4.20;;;3.40;;
1825;SDS011;912;48.130;11.348;2022-08-25T14:12:03;3.90;;;3.30;;
1825;SDS011;912;48.130;11.348;2022-08-25T14:14:56;4.60;;;3.20;;
1825;SDS011;912;48.130;11.348;2022-08-25T14:17:36;3.67;;;3.13;;
1825;SDS011;912;48.130;11.348;2022-08-25T14:20:19;3.30;;;3.00;;
1825;SDS011;912;48.130;11.348;2022-08-25T14:23:06;5.80;;;3.70;;
1825;SDS011;912;48.130;11.348;2022-08-25T14:25:48;4.20;;;2.90;;
1825;SDS011;912;48.130;11.348;2022-08-25T14:28:29;5.40;;;3.40;;
1825;SDS011;912;48.130;11.348;2022-08-25T14:31:16;3.40;;;3.00;;
1825;SDS011;912;48.130;11.348;2022-08-25T14:35:51;5.22;;;3.35;;
1825;SDS011;912;48.130;11.348;2022-08-25T14:38:32;4.47;;;3.30;;
1825;SDS011;912;48.130;11.348;2022-08-25T14:41:15;3.10;;;2.80;;
1825;SDS011;912;48.130;11.348;2022-08-25T14:43:57;3.20;;;2.90;;
1825;SDS011;912;48.130;11.348;2022-08-25T14:46:44;7.80;;;3.20;;
1825;SDS011;912;48.130;11.348;2022-08-25T14:49:24;3.47;;;3.17;;
1825;SDS011;912;48.130;11.348;2022-08-25T14:52:07;4.00;;;3.17;;
1825;SDS011;912;48.130;11.348;2022-08-25T14:54:50;5.70;;;2.90;;
1825;SDS011;912;48.130;11.348;2022-08-25T14:57:31;4.07;;;3.30;;
1825;SDS011;912;48.130;11.348;2022-08-25T15:00:13;6.62;;;3.83;;
1825;SDS011;912;48.130;11.348;2022-08-25T15:02:55;3.50;;;3.20;;
1825;SDS011;912;48.130;11.348;2022-08-25T15:05:40;5.05;;;3.03;;
1825;SDS011;912;48.130;11.348;2022-08-25T15:08:22;4.53;;;3.42;;
1825;SDS011;912;48.130;11.348;2022-08-25T15:11:09;6.10;;;3.35;;
1825;SDS011;912;48.130;11.348;2022-08-25T15:13:52;6.80;;;3.72;;
1825;SDS011;912;48.130;11.348;2022-08-25T15:16:35;5.07;;;3.30;;
1825;SDS011;912;48.130;11.348;2022-08-25T15:19:18;4.15;;;3.65;;
1825;SDS011;912;48.130;11.348;2022-08-25T15:21:58;4.97;;;2.80;;
1825;SDS011;912;48.130;11.348;2022-08-25T15:24:40;3.80;;;2.97;;
1825;SDS011;912;48.130;11.348;2022-08-25T15:27:23;5.95;;;3.53;;
1825;SDS011;912;48.130;11.348;2022-08-25T15:32:32;3.60;;;3.30;;
1825;SDS011;912;48.130;11.348;2022-08-25T15:35:53;4.60;;;3.37;;
1825;SDS011;912;48.130;11.348;2022-08-25T15:38:34;8.05;;;3.30;;
1825;SDS011;912;48.130;11.348;2022-08-25T15:43:50;4.03;;;3.30;;
1825;SDS011;912;48.130;11.348;2022-08-25T15:46:33;5.87;;;3.28;;
1825;SDS011;912;48.130;11.348;2022-08-25T15:49:14;4.50;;;3.30;;
1825;SDS011;912;48.130;11.348;2022-08-25T15:51:56;4.30;;;3.62;;
1825;SDS011;912;48.130;11.348;2022-08-25T15:54:38;3.90;;;3.15;;
1825;SDS011;912;48.130;11.348;2022-08-25T15:57:19;7.30;;;3.80;;
1825;SDS011;912;48.130;11.348;2022-08-25T16:00:04;7.68;;;3.40;;
1825;SDS011;912;48.130;11.348;2022-08-25T16:02:45;4.25;;;3.85;;
1825;SDS011;912;48.130;11.348;2022-08-25T16:05:30;10.07;;;3.97;;
1825;SDS011;912;48.130;11.348;2022-08-25T16:08:13;8.52;;;4.05;;
1825;SDS011;912;48.130;11.348;2022-08-25T16:10:55;4.55;;;4.15;;
1825;SDS011;912;48.130;11.348;2022-08-25T16:13:36;7.35;;;3.80;;
1825;SDS011;912;48.130;11.348;2022-08-25T16:16:19;5.62;;;4.30;;
1825;SDS011;912;48.130;11.348;2022-08-25T16:19:00;5.43;;;4.20;;
1825;SDS011;912;48.130;11.348;2022-08-25T16:21:42;4.22;;;3.37;;
1825;SDS011;912;48.130;11.348;2022-08-25T16:26:59;8.93;;;3.78;;
1825;SDS011;912;48.130;11.348;2022-08-25T16:29:41;3.50;;;3.20;;
1825;SDS011;912;48.130;11.348;2022-08-25T16:32:21;4.82;;;3.78;;
1825;SDS011;912;48.130;11.348;2022-08-25T16:35:50;4.70;;;3.70;;
1825;SDS011;912;48.130;11.348;2022-08-25T16:38:31;5.93;;;3.87;;
1825;SDS011;912;48.130;11.348;2022-08-25T16:42:53;7.33;;;3.57;;
1825;SDS011;912;48.130;11.348;2022-08-25T16:45:35;5.37;;;3.50;;
1825;SDS011;912;48.130;11.348;2022-08-25T16:48:17;6.25;;;3.47;;
1825;SDS011;912;48.130;11.348;2022-08-25T16:50:59;4.15;;;3.72;;
1825;SDS011;912;48.130;11.348;2022-08-25T16:53:41;5.90;;;3.20;;
1825;SDS011;912;48.130;11.348;2022-08-25T16:56:29;5.72;;;3.00;;
1825;SDS011;912;48.130;11.348;2022-08-25T16:59:13;7.22;;;3.97;;
1825;SDS011;912;48.130;11.348;2022-08-25T17:01:55;5.03;;;3.65;;
1825;SDS011;912;48.130;11.348;2022-08-25T17:04:38;7.07;;;3.20;;
1825;SDS011;912;48.130;11.348;2022-08-25T17:07:19;5.97;;;3.47;;
1825;SDS011;912;48.130;11.348;2022-08-25T17:10:02;3.85;;;3.28;;
1825;SDS011;912;48.130;11.348;2022-08-25T17:12:44;5.05;;;3.50;;
1825;SDS011;912;48.130;11.348;2022-08-25T17:15:26;4.20;;;2.75;;
1825;SDS011;912;48.130;11.348;2022-08-25T17:18:08;4.93;;;3.00;;
1825;SDS011;912;48.130;11.348;2022-08-25T17:20:57;3.62;;;3.30;;
1825;SDS011;912;48.130;11.348;2022-08-25T17:23:40;4.22;;;3.50;;
1825;SDS011;912;48.130;11.348;2022-08-25T17:26:22;6.62;;;3.53;;
1825;SDS011;912;48.130;11.348;2022-08-25T17:29:02;6.37;;;3.30;;
1825;SDS011;912;48.130;11.348;2022-08-25T17:31:44;3.33;;;2.97;;
1825;SDS011;912;48.130;11.348;2022-08-25T17:35:50;4.50;;;2.53;;
1825;SDS011;912;48.130;11.348;2022-08-25T17:38:33;3.22;;;2.53;;
1825;SDS011;912;48.130;11.348;2022-08-25T17:41:15;5.28;;;3.58;;
1825;SDS011;912;48.130;11.348;2022-08-25T17:43:57;9.52;;;3.42;;
1825;SDS011;912;48.130;11.348;2022-08-25T17:46:39;4.20;;;3.05;;
1825;SDS011;912;48.130;11.348;2022-08-25T17:49:20;4.68;;;2.62;;
1825;SDS011;912;48.130;11.348;2022-08-25T17:52:02;6.90;;;3.10;;
1825;SDS011;912;48.130;11.348;2022-08-25T17:54:47;2.83;;;2.22;;
1825;SDS011;912;48.130;11.348;2022-08-25T17:57:29;5.00;;;3.50;;
1825;SDS011;912;48.130;11.348;2022-08-25T18:00:12;7.90;;;3.28;;
1825;SDS011;912;48.130;11.348;2022-08-25T18:02:54;4.87;;;3.40;;
1825;SDS011;912;48.130;11.348;2022-08-25T18:05:36;4.15;;;2.40;;
1825;SDS011;912;48.130;11.348;2022-08-25T18:08:17;4.12;;;2.67;;
1825;SDS011;912;48.130;11.348;2022-08-25T18:11:02;5.47;;;3.20;;
1825;SDS011;912;48.130;11.348;2022-08-25T18:13:44;6.07;;;3.28;;
1825;SDS011;912;48.130;11.348;2022-08-25T18:16:27;4.70;;;2.95;;
1825;SDS011;912;48.130;11.348;2022-08-25T18:19:08;5.55;;;2.35;;
1825;SDS011;912;48.130;11.348;2022-08-25T18:21:53;5.40;;;3.47;;
1825;SDS011;912;48.130;11.348;2022-08-25T18:24:34;8.20;;;3.12;;
1825;SDS011;912;48.130;11.348;2022-08-25T18:27:17;5.43;;;2.85;;
1825;SDS011;912;48.130;11.348;2022-08-25T18:29:59;4.45;;;2.70;;
1825;SDS011;912;48.130;11.348;2022-08-25T18:32:42;4.90;;;3.30;;